createdAt,value
2017-09-24T07:24:59.276Z,12.12
2017-09-24T07:26:01.194Z,12.07
2017-09-24T07:27:03.119Z,12.01
2017-09-24T07:28:05.059Z,11.99
2017-09-24T07:29:06.928Z,12.17
2017-09-24T07:30:08.788Z,12.20
2017-09-24T07:31:10.729Z,12.20
2017-09-24T07:32:12.653Z,12.23
2017-09-24T07:33:14.634Z,12.29
2017-09-24T07:34:28.842Z,12.47
2017-09-24T07:35:30.776Z,12.54
2017-09-24T07:36:32.684Z,12.57
2017-09-24T07:37:34.565Z,12.67
2017-09-24T07:38:36.399Z,12.79
2017-09-24T07:39:38.258Z,12.87
2017-09-24T07:40:40.141Z,12.97
2017-09-24T07:41:42.027Z,13.11
2017-09-24T07:42:43.913Z,13.19
2017-09-24T07:43:58.071Z,13.28
2017-09-24T07:45:00.395Z,13.52
2017-09-24T07:46:02.511Z,13.55
2017-09-24T07:47:04.369Z,13.70
2017-09-24T07:48:06.196Z,13.78
2017-09-24T07:49:08.390Z,13.79
2017-09-24T07:50:10.292Z,13.96
2017-09-24T07:51:12.206Z,13.89
2017-09-24T07:52:14.094Z,13.95
2017-09-24T07:53:28.257Z,13.95
2017-09-24T07:54:30.146Z,14.20
2017-09-24T07:55:32.028Z,14.10
2017-09-24T07:56:33.911Z,14.25
2017-09-24T07:57:35.760Z,14.28
2017-09-24T07:58:37.561Z,14.37
2017-09-24T07:59:39.476Z,14.55
2017-09-24T08:00:41.357Z,14.57
2017-09-24T08:01:43.264Z,14.60
2017-09-24T08:02:57.425Z,14.73
2017-09-24T08:03:59.308Z,14.75
2017-09-24T08:05:01.194Z,14.73
2017-09-24T08:06:03.081Z,14.89
2017-09-24T08:07:04.956Z,14.81
2017-09-24T08:08:06.766Z,14.91
2017-09-24T08:09:08.703Z,14.80
2017-09-24T08:10:10.585Z,14.83
2017-09-24T08:11:12.480Z,14.72
2017-09-24T08:12:26.640Z,14.86
2017-09-24T08:13:28.527Z,14.91
2017-09-24T08:14:30.411Z,14.91
2017-09-24T08:15:32.297Z,14.95
2017-09-24T08:16:34.183Z,14.95
2017-09-24T08:17:36.005Z,14.89
2017-09-24T08:18:37.933Z,14.92
2017-09-24T08:19:39.862Z,14.94
2017-09-24T08:20:41.743Z,14.98
2017-09-24T08:21:55.969Z,15.01
2017-09-24T08:22:57.855Z,15.01
2017-09-24T08:23:59.743Z,15.11
2017-09-24T08:25:01.631Z,15.01
2017-09-24T08:26:03.455Z,14.99
2017-09-24T08:27:05.277Z,14.89
2017-09-24T08:28:07.162Z,14.99
2017-09-24T08:29:09.051Z,14.98
2017-09-24T08:30:10.949Z,15.13
2017-09-24T08:31:25.109Z,15.25
2017-09-24T08:32:27.047Z,15.20
2017-09-24T08:33:28.932Z,15.31
2017-09-24T08:34:30.820Z,15.34
2017-09-24T08:35:32.644Z,15.35
2017-09-24T08:36:34.524Z,15.36
2017-09-24T08:37:36.395Z,15.36
2017-09-24T08:38:38.284Z,15.41
2017-09-24T08:39:40.199Z,15.39
2017-09-24T08:40:54.342Z,15.36
2017-09-24T08:41:56.225Z,15.27
2017-09-24T08:42:58.118Z,15.32
2017-09-24T08:44:00.065Z,15.39
2017-09-24T08:45:01.882Z,15.34
2017-09-24T08:46:03.802Z,15.36
2017-09-24T08:47:05.666Z,15.38
2017-09-24T08:48:07.551Z,15.35
2017-09-24T08:49:09.436Z,15.35
2017-09-24T08:50:23.674Z,15.49
2017-09-24T08:51:25.573Z,15.51
2017-09-24T08:52:27.460Z,15.56
2017-09-24T08:53:29.356Z,15.62
2017-09-24T08:54:31.321Z,15.54
2017-09-24T08:55:33.175Z,15.64
2017-09-24T08:56:35.062Z,15.64
2017-09-24T08:57:36.951Z,15.71
2017-09-24T08:58:38.847Z,15.71
2017-09-24T08:59:53.161Z,15.72
2017-09-24T09:00:55.095Z,15.75
2017-09-24T09:01:56.986Z,15.75
2017-09-24T09:02:58.891Z,15.89
2017-09-24T09:04:00.710Z,15.83
2017-09-24T09:05:02.537Z,15.89
2017-09-24T09:06:04.425Z,15.92
2017-09-24T09:07:06.383Z,15.72
2017-09-24T09:08:08.272Z,15.69
2017-09-24T09:09:22.426Z,15.74
2017-09-24T09:10:24.314Z,15.78
2017-09-24T09:11:26.199Z,15.80
2017-09-24T09:12:28.088Z,15.83
2017-09-24T09:13:29.913Z,16.00
2017-09-24T09:14:31.736Z,16.09
2017-09-24T09:15:33.625Z,16.25
2017-09-24T09:16:35.516Z,16.35
2017-09-24T09:17:37.406Z,16.46
2017-09-24T09:18:51.568Z,16.41
2017-09-24T09:19:53.539Z,16.46
2017-09-24T09:20:55.394Z,16.56
2017-09-24T09:21:57.285Z,16.56
2017-09-24T09:22:59.113Z,16.58
2017-09-24T09:24:00.942Z,16.58
2017-09-24T09:25:02.827Z,16.64
2017-09-24T09:26:04.718Z,16.76
2017-09-24T09:27:06.601Z,16.81
2017-09-24T09:28:20.765Z,16.81
2017-09-24T09:29:22.996Z,16.75
2017-09-24T09:30:24.849Z,16.75
2017-09-24T09:31:26.753Z,16.60
2017-09-24T09:32:28.598Z,16.66
2017-09-24T09:33:30.424Z,16.73
2017-09-24T09:34:32.309Z,16.86
2017-09-24T09:35:34.245Z,16.81
2017-09-24T09:36:36.110Z,16.63
2017-09-24T09:37:50.270Z,16.52
2017-09-24T09:38:52.157Z,16.48
2017-09-24T09:39:54.051Z,16.46
2017-09-24T09:40:55.995Z,16.50
2017-09-24T09:41:57.819Z,16.50
2017-09-24T09:42:59.645Z,16.63
2017-09-24T09:44:01.536Z,16.70
2017-09-24T09:45:03.421Z,16.66
2017-09-24T09:46:05.316Z,16.68
2017-09-24T09:47:19.476Z,16.73
2017-09-24T09:48:21.393Z,16.88
2017-09-24T09:49:23.280Z,16.79
2017-09-24T09:50:25.174Z,16.81
2017-09-24T09:51:27.027Z,16.82
2017-09-24T09:52:28.849Z,16.73
2017-09-24T09:53:30.741Z,16.63
2017-09-24T09:54:32.632Z,16.63
2017-09-24T09:55:34.516Z,16.68
2017-09-24T09:56:48.758Z,16.58
2017-09-24T09:57:50.742Z,16.58
2017-09-24T09:58:52.637Z,16.56
2017-09-24T09:59:54.521Z,16.43
2017-09-24T10:00:56.658Z,16.38
2017-09-24T10:01:58.451Z,16.35
2017-09-24T10:03:00.340Z,16.48
2017-09-24T10:04:02.247Z,16.50
2017-09-24T10:05:04.119Z,16.53
2017-09-24T10:06:18.284Z,16.34
2017-09-24T10:07:20.164Z,16.23
2017-09-24T10:08:22.051Z,16.05
2017-09-24T10:09:23.940Z,16.08
2017-09-24T10:10:25.799Z,16.02
2017-09-24T10:11:27.627Z,16.05
2017-09-24T10:12:29.512Z,16.01
2017-09-24T10:13:31.746Z,16.00
2017-09-24T10:14:33.600Z,15.84
2017-09-24T10:15:47.766Z,15.75
2017-09-24T10:16:49.654Z,15.76
2017-09-24T10:17:51.540Z,15.65
2017-09-24T10:18:53.749Z,15.67
2017-09-24T10:19:55.624Z,15.57
2017-09-24T10:20:57.452Z,15.59
2017-09-24T10:21:59.370Z,15.57
2017-09-24T10:23:01.234Z,15.50
2017-09-24T10:24:03.121Z,15.54
2017-09-24T10:25:17.332Z,15.47
2017-09-24T10:26:19.222Z,15.59
2017-09-24T10:27:21.130Z,15.56
2017-09-24T10:28:23.014Z,15.47
2017-09-24T10:29:24.843Z,15.59
2017-09-24T10:30:26.670Z,15.57
2017-09-24T10:31:28.557Z,15.56
2017-09-24T10:32:30.442Z,15.56
2017-09-24T10:33:32.369Z,15.62
2017-09-24T10:34:46.580Z,15.68
2017-09-24T10:35:48.465Z,15.72
2017-09-24T10:36:50.742Z,15.86
2017-09-24T10:37:52.814Z,16.05
2017-09-24T10:38:54.610Z,16.20
2017-09-24T10:39:56.450Z,16.42
2017-09-24T10:40:58.342Z,16.35
2017-09-24T10:42:00.221Z,16.38
2017-09-24T10:43:02.108Z,16.34
2017-09-24T10:44:16.282Z,16.35
2017-09-24T10:45:18.163Z,16.41
2017-09-24T10:46:20.062Z,16.60
2017-09-24T10:47:21.951Z,16.75
2017-09-24T10:48:23.782Z,16.76
2017-09-24T10:49:25.621Z,16.73
2017-09-24T10:50:27.505Z,16.67
2017-09-24T10:51:29.397Z,16.64
2017-09-24T10:52:31.285Z,16.63
2017-09-24T10:53:45.456Z,16.56
2017-09-24T10:54:47.809Z,16.43
2017-09-24T10:55:49.667Z,16.56
2017-09-24T10:56:51.568Z,16.66
2017-09-24T10:57:53.398Z,16.78
2017-09-24T10:58:55.227Z,16.82
2017-09-24T10:59:57.109Z,16.83
2017-09-24T11:00:58.995Z,16.82
2017-09-24T11:02:00.888Z,16.85
2017-09-24T11:03:15.056Z,16.79
2017-09-24T11:04:16.942Z,16.61
2017-09-24T11:05:18.832Z,16.61
2017-09-24T11:06:20.720Z,16.48
2017-09-24T11:07:22.546Z,16.42
2017-09-24T11:08:24.383Z,16.39
2017-09-24T11:09:26.271Z,16.39
2017-09-24T11:10:28.165Z,16.52
2017-09-24T11:11:30.041Z,16.46
2017-09-24T11:12:44.216Z,16.28
2017-09-24T11:13:46.111Z,16.25
2017-09-24T11:14:47.998Z,16.27
2017-09-24T11:15:50.053Z,16.35
2017-09-24T11:16:51.877Z,16.34
2017-09-24T11:17:53.702Z,16.41
2017-09-24T11:18:55.593Z,16.46
2017-09-24T11:19:57.483Z,16.49
2017-09-24T11:20:59.368Z,16.56
2017-09-24T11:22:13.890Z,16.52
2017-09-24T11:23:15.760Z,16.42
2017-09-24T11:24:17.644Z,16.42
2017-09-24T11:25:19.590Z,16.27
2017-09-24T11:26:21.427Z,16.24
2017-09-24T11:27:23.279Z,16.25
2017-09-24T11:28:25.211Z,16.30
2017-09-24T11:29:27.097Z,16.34
2017-09-24T11:30:28.987Z,16.30
2017-09-24T11:31:43.487Z,16.34
2017-09-24T11:32:45.417Z,16.31
2017-09-24T11:33:47.277Z,16.31
2017-09-24T11:34:49.167Z,16.31
2017-09-24T11:35:50.997Z,16.33
2017-09-24T11:36:52.870Z,16.38
2017-09-24T11:37:54.758Z,16.35
2017-09-24T11:38:56.643Z,16.39
2017-09-24T11:39:58.536Z,16.45
2017-09-24T11:41:12.726Z,16.41
2017-09-24T11:42:14.647Z,16.53
2017-09-24T11:43:16.805Z,16.58
2017-09-24T11:44:18.668Z,16.43
2017-09-24T11:45:20.494Z,16.42
2017-09-24T11:46:22.348Z,16.30
2017-09-24T11:47:24.234Z,16.35
2017-09-24T11:48:26.132Z,16.39
2017-09-24T11:49:28.015Z,16.33
2017-09-24T11:50:42.188Z,16.27
2017-09-24T11:51:44.072Z,16.25
2017-09-24T11:52:45.956Z,16.25
2017-09-24T11:53:47.845Z,16.27
2017-09-24T11:54:49.670Z,16.21
2017-09-24T11:55:51.863Z,16.25
2017-09-24T11:56:54.059Z,16.25
2017-09-24T11:57:56.210Z,16.39
2017-09-24T11:58:58.041Z,16.45
2017-09-24T12:00:12.226Z,16.42
2017-09-24T12:01:14.112Z,16.43
2017-09-24T12:02:15.998Z,16.41
2017-09-24T12:03:17.886Z,16.50
2017-09-24T12:04:19.723Z,16.43
2017-09-24T12:05:21.552Z,16.45
2017-09-24T12:06:23.443Z,16.45
2017-09-24T12:07:25.325Z,16.43
2017-09-24T12:08:27.214Z,16.33
2017-09-24T12:09:41.373Z,16.27
2017-09-24T12:10:43.262Z,16.42
2017-09-24T12:11:45.148Z,16.34
2017-09-24T12:12:47.041Z,16.35
2017-09-24T12:13:48.883Z,16.46
2017-09-24T12:14:50.707Z,16.45
2017-09-24T12:15:52.605Z,16.48
2017-09-24T12:16:54.503Z,16.49
2017-09-24T12:17:56.390Z,16.50
2017-09-24T12:19:10.598Z,16.58
2017-09-24T12:20:12.483Z,16.70
2017-09-24T12:21:14.393Z,16.68
2017-09-24T12:22:16.275Z,16.68
2017-09-24T12:23:18.105Z,16.61
2017-09-24T12:24:19.956Z,16.61
2017-09-24T12:25:22.249Z,16.66
2017-09-24T12:26:24.117Z,16.61
2017-09-24T12:27:26.008Z,16.66
2017-09-24T12:28:40.167Z,16.64
2017-09-24T12:29:42.053Z,16.58
2017-09-24T12:30:43.975Z,16.57
2017-09-24T12:31:45.886Z,16.53
2017-09-24T12:32:47.709Z,16.52
2017-09-24T12:33:49.537Z,16.46
2017-09-24T12:34:51.435Z,16.43
2017-09-24T12:35:53.316Z,16.49
2017-09-24T12:36:55.207Z,16.50
2017-09-24T12:38:09.372Z,16.60
2017-09-24T12:39:11.285Z,16.57
2017-09-24T12:40:13.172Z,16.48
2017-09-24T12:41:15.071Z,16.56
2017-09-24T12:42:16.916Z,16.53
2017-09-24T12:43:18.748Z,16.42
2017-09-24T12:44:20.639Z,16.45
2017-09-24T12:45:22.888Z,16.42
2017-09-24T12:46:24.740Z,16.60
2017-09-24T12:47:38.900Z,16.67
2017-09-24T12:48:40.798Z,16.64
2017-09-24T12:49:42.692Z,16.64
2017-09-24T12:50:44.588Z,16.63
2017-09-24T12:51:46.415Z,16.71
2017-09-24T12:52:48.239Z,16.61
2017-09-24T12:53:50.491Z,16.63
2017-09-24T12:54:52.350Z,16.57
2017-09-24T12:55:54.390Z,16.58
2017-09-24T12:57:08.539Z,16.63
2017-09-24T12:58:10.432Z,16.66
2017-09-24T12:59:12.343Z,16.61
2017-09-24T13:00:14.239Z,16.52
2017-09-24T13:01:16.065Z,16.57
2017-09-24T13:02:17.892Z,16.60
2017-09-24T13:03:19.779Z,16.73
2017-09-24T13:04:21.689Z,16.78
2017-09-24T13:05:23.584Z,16.86
2017-09-24T13:06:37.790Z,16.83
2017-09-24T13:07:39.693Z,16.81
2017-09-24T13:08:41.588Z,16.75
2017-09-24T13:09:43.474Z,16.60
2017-09-24T13:10:45.304Z,16.61
2017-09-24T13:11:47.128Z,16.53
2017-09-24T13:12:49.023Z,16.52
2017-09-24T13:13:50.913Z,16.50
2017-09-24T13:14:52.801Z,16.45
2017-09-24T13:16:06.971Z,16.46
2017-09-24T13:17:08.853Z,16.49
2017-09-24T13:18:10.743Z,16.45
2017-09-24T13:19:12.632Z,16.45
2017-09-24T13:20:14.459Z,16.27
2017-09-24T13:21:16.284Z,16.17
2017-09-24T13:22:18.174Z,16.27
2017-09-24T13:23:20.061Z,16.25
2017-09-24T13:24:21.950Z,16.23
2017-09-24T13:25:36.111Z,16.25
2017-09-24T13:26:38.008Z,16.31
2017-09-24T13:27:39.906Z,16.20
2017-09-24T13:28:41.797Z,16.24
2017-09-24T13:29:43.963Z,16.21
2017-09-24T13:30:45.752Z,16.12
2017-09-24T13:31:47.643Z,16.11
2017-09-24T13:32:49.538Z,16.12
2017-09-24T13:33:51.425Z,16.17
2017-09-24T13:35:05.602Z,16.02
2017-09-24T13:36:07.496Z,16.05
2017-09-24T13:37:09.418Z,16.04
2017-09-24T13:38:11.278Z,16.11
2017-09-24T13:39:13.187Z,16.21
2017-09-24T13:40:14.979Z,16.20
2017-09-24T13:41:16.908Z,16.21
2017-09-24T13:42:18.767Z,16.21
2017-09-24T13:43:20.654Z,16.15
2017-09-24T13:44:34.821Z,16.28
2017-09-24T13:45:36.721Z,16.24
2017-09-24T13:46:38.602Z,16.21
2017-09-24T13:47:40.494Z,16.14
2017-09-24T13:48:42.360Z,16.17
2017-09-24T13:49:44.174Z,16.05
2017-09-24T13:50:46.068Z,16.07
2017-09-24T13:51:47.959Z,16.00
2017-09-24T13:52:49.850Z,16.21
2017-09-24T13:54:04.015Z,16.24
2017-09-24T13:55:05.905Z,16.25
2017-09-24T13:56:07.796Z,16.27
2017-09-24T13:57:09.686Z,16.24
2017-09-24T13:58:11.516Z,16.20
2017-09-24T13:59:13.338Z,16.14
2017-09-24T14:00:15.235Z,16.21
2017-09-24T14:01:17.119Z,16.21
2017-09-24T14:02:19.018Z,16.08
2017-09-24T14:03:33.174Z,16.04
2017-09-24T14:04:35.063Z,16.08
2017-09-24T14:05:36.949Z,16.07
2017-09-24T14:06:38.839Z,16.20
2017-09-24T14:07:40.680Z,16.12
2017-09-24T14:08:42.493Z,16.20
2017-09-24T14:09:44.382Z,16.14
2017-09-24T14:10:46.277Z,16.15
2017-09-24T14:11:48.162Z,16.11
2017-09-24T14:13:02.323Z,16.04
2017-09-24T14:14:04.212Z,16.07
2017-09-24T14:15:06.099Z,15.92
2017-09-24T14:16:07.991Z,15.96
2017-09-24T14:17:09.821Z,15.93
2017-09-24T14:18:11.642Z,15.92
2017-09-24T14:19:13.534Z,15.94
2017-09-24T14:20:15.422Z,15.97
2017-09-24T14:21:17.312Z,16.00
2017-09-24T14:22:31.476Z,15.96
2017-09-24T14:23:33.360Z,16.00
2017-09-24T14:24:35.252Z,15.97
2017-09-24T14:25:37.142Z,16.02
2017-09-24T14:26:38.975Z,16.05
2017-09-24T14:27:40.796Z,16.17
2017-09-24T14:28:42.686Z,16.30
2017-09-24T14:29:44.580Z,16.34
2017-09-24T14:30:46.474Z,16.48
2017-09-24T14:32:00.673Z,16.57
2017-09-24T14:33:02.549Z,16.50
2017-09-24T14:34:04.440Z,16.42
2017-09-24T14:35:06.703Z,16.50
2017-09-24T14:36:08.587Z,16.46
2017-09-24T14:37:10.428Z,16.35
2017-09-24T14:38:12.322Z,16.53
2017-09-24T14:39:14.213Z,16.52
2017-09-24T14:40:16.103Z,16.56
2017-09-24T14:41:30.276Z,16.45
2017-09-24T14:42:32.160Z,16.39
2017-09-24T14:43:34.060Z,16.41
2017-09-24T14:44:35.951Z,16.28
2017-09-24T14:45:37.777Z,16.20
2017-09-24T14:46:39.602Z,16.23
2017-09-24T14:47:41.493Z,16.08
2017-09-24T14:48:43.381Z,16.02
2017-09-24T14:49:45.273Z,16.11
2017-09-24T14:50:59.432Z,16.17
2017-09-24T14:52:01.337Z,16.24
2017-09-24T14:53:03.215Z,16.25
2017-09-24T14:54:05.109Z,16.34
2017-09-24T14:55:06.935Z,16.35
2017-09-24T14:56:08.762Z,16.27
2017-09-24T14:57:10.651Z,16.27
2017-09-24T14:58:12.553Z,16.14
2017-09-24T14:59:14.442Z,16.17
2017-09-24T15:00:28.604Z,16.14
2017-09-24T15:01:30.492Z,16.12
2017-09-24T15:02:32.379Z,16.14
2017-09-24T15:03:34.270Z,16.09
2017-09-24T15:04:36.093Z,16.14
2017-09-24T15:05:37.922Z,16.20
2017-09-24T15:06:39.811Z,16.23
2017-09-24T15:07:41.704Z,16.38
2017-09-24T15:08:43.604Z,16.28
2017-09-24T15:09:57.764Z,16.31
2017-09-24T15:10:59.651Z,16.34
2017-09-24T15:12:01.538Z,16.33
2017-09-24T15:13:03.862Z,16.48
2017-09-24T15:14:05.717Z,16.43
2017-09-24T15:15:07.528Z,16.56
2017-09-24T15:16:09.418Z,16.61
2017-09-24T15:17:11.309Z,16.61
2017-09-24T15:18:13.196Z,16.63
2017-09-24T15:19:27.365Z,16.63
2017-09-24T15:20:29.259Z,16.66
2017-09-24T15:21:31.146Z,16.78
2017-09-24T15:22:33.117Z,16.75
2017-09-24T15:23:34.943Z,16.83
2017-09-24T15:24:36.762Z,16.83
2017-09-24T15:25:38.656Z,16.88
2017-09-24T15:26:40.554Z,16.79
2017-09-24T15:27:42.461Z,16.73
2017-09-24T15:28:56.613Z,16.63
2017-09-24T15:29:58.518Z,16.58
2017-09-24T15:31:00.398Z,16.48
2017-09-24T15:32:02.299Z,16.58
2017-09-24T15:33:04.112Z,16.60
2017-09-24T15:34:05.938Z,16.53
2017-09-24T15:35:07.827Z,16.50
2017-09-24T15:36:09.719Z,16.48
2017-09-24T15:37:11.944Z,16.57
2017-09-24T15:38:26.076Z,16.57
2017-09-24T15:39:27.963Z,16.63
2017-09-24T15:40:29.852Z,16.75
2017-09-24T15:41:31.742Z,16.71
2017-09-24T15:42:33.568Z,16.64
2017-09-24T15:43:35.415Z,16.48
2017-09-24T15:44:37.284Z,16.53
2017-09-24T15:45:39.171Z,16.45
2017-09-24T15:46:41.065Z,16.53
2017-09-24T15:47:55.226Z,16.63
2017-09-24T15:48:57.124Z,16.66
2017-09-24T15:49:59.004Z,16.61
2017-09-24T15:51:00.894Z,16.57
2017-09-24T15:52:02.728Z,16.50
2017-09-24T15:53:04.551Z,16.52
2017-09-24T15:54:06.436Z,16.41
2017-09-24T15:55:08.323Z,16.49
2017-09-24T15:56:10.225Z,16.39
2017-09-24T15:57:24.391Z,16.35
2017-09-24T15:58:26.277Z,16.35
2017-09-24T15:59:28.166Z,16.38
2017-09-24T16:00:30.058Z,16.48
2017-09-24T16:01:31.883Z,16.48
2017-09-24T16:02:33.709Z,16.43
2017-09-24T16:03:35.594Z,16.46
2017-09-24T16:04:37.483Z,16.45
2017-09-24T16:05:39.377Z,16.45
2017-09-24T16:06:53.535Z,16.42
2017-09-24T16:07:55.424Z,16.39
2017-09-24T16:08:57.315Z,16.35
2017-09-24T16:09:59.237Z,16.27
2017-09-24T16:11:01.089Z,16.33
2017-09-24T16:12:02.912Z,16.39
2017-09-24T16:13:04.803Z,16.38
2017-09-24T16:14:06.687Z,16.35
2017-09-24T16:15:08.584Z,16.39
2017-09-24T16:16:22.741Z,16.39
2017-09-24T16:17:24.628Z,16.33
2017-09-24T16:18:26.514Z,16.39
2017-09-24T16:19:28.401Z,16.38
2017-09-24T16:20:30.512Z,16.35
2017-09-24T16:21:32.288Z,16.31
2017-09-24T16:22:34.181Z,16.30
2017-09-24T16:23:36.066Z,16.23
2017-09-24T16:24:38.288Z,16.28
2017-09-24T16:25:52.491Z,16.25
2017-09-24T16:26:54.374Z,16.33
2017-09-24T16:27:56.258Z,16.35
2017-09-24T16:28:58.489Z,16.28
2017-09-24T16:30:00.933Z,16.21
2017-09-24T16:31:02.839Z,16.17
2017-09-24T16:32:04.740Z,16.12
2017-09-24T16:33:06.634Z,16.09
2017-09-24T16:34:08.570Z,16.04
2017-09-24T16:35:22.721Z,16.11
2017-09-24T16:36:24.609Z,16.08
2017-09-24T16:37:26.494Z,16.21
2017-09-24T16:38:28.383Z,16.27
2017-09-24T16:39:30.208Z,16.27
2017-09-24T16:40:32.029Z,16.25
2017-09-24T16:41:33.915Z,16.17
2017-09-24T16:42:35.800Z,16.23
2017-09-24T16:43:37.688Z,16.17
2017-09-24T16:44:51.847Z,16.20
2017-09-24T16:45:53.737Z,16.17
2017-09-24T16:46:55.621Z,16.25
2017-09-24T16:47:57.512Z,16.12
2017-09-24T16:48:59.332Z,16.08
2017-09-24T16:50:01.165Z,16.21
2017-09-24T16:51:03.052Z,16.23
2017-09-24T16:52:04.939Z,16.05
2017-09-24T16:53:06.877Z,16.12
2017-09-24T16:54:21.037Z,16.21
2017-09-24T16:55:23.024Z,16.17
2017-09-24T16:56:24.910Z,16.21
2017-09-24T16:57:26.796Z,16.12
2017-09-24T16:58:28.632Z,16.20
2017-09-24T16:59:30.452Z,16.21
2017-09-24T17:00:32.361Z,16.21
2017-09-24T17:01:34.229Z,16.24
2017-09-24T17:02:36.124Z,16.23
2017-09-24T17:03:50.281Z,16.17
2017-09-24T17:04:52.169Z,16.14
2017-09-24T17:05:54.061Z,16.11
2017-09-24T17:06:55.941Z,16.11
2017-09-24T17:07:57.760Z,16.12
2017-09-24T17:08:59.580Z,16.17
2017-09-24T17:10:01.468Z,16.21
2017-09-24T17:11:03.360Z,16.15
2017-09-24T17:12:05.250Z,16.23
2017-09-24T17:13:19.787Z,16.20
2017-09-24T17:14:21.636Z,16.15
2017-09-24T17:15:23.533Z,16.11
2017-09-24T17:16:25.422Z,16.05
2017-09-24T17:17:27.245Z,16.04
2017-09-24T17:18:29.066Z,16.04
2017-09-24T17:19:30.982Z,16.04
2017-09-24T17:20:32.958Z,16.11
2017-09-24T17:21:34.836Z,16.02
2017-09-24T17:22:48.993Z,16.20
2017-09-24T17:23:50.875Z,16.05
2017-09-24T17:24:52.764Z,16.11
2017-09-24T17:25:54.726Z,16.12
2017-09-24T17:26:56.545Z,16.12
2017-09-24T17:27:58.367Z,16.20
2017-09-24T17:29:00.250Z,16.15
2017-09-24T17:30:02.132Z,16.12
2017-09-24T17:31:04.029Z,16.15
2017-09-24T17:32:18.173Z,16.12
2017-09-24T17:33:20.064Z,16.02
2017-09-24T17:34:21.962Z,16.00
2017-09-24T17:35:23.844Z,16.05
2017-09-24T17:36:25.656Z,16.02
2017-09-24T17:37:27.472Z,16.00
2017-09-24T17:38:29.364Z,16.01
2017-09-24T17:39:31.254Z,15.96
2017-09-24T17:40:33.172Z,16.01
2017-09-24T17:41:47.326Z,16.05
2017-09-24T17:42:49.210Z,16.05
2017-09-24T17:43:51.102Z,16.07
2017-09-24T17:44:52.981Z,16.14
2017-09-24T17:45:54.807Z,16.12
2017-09-24T17:46:56.627Z,16.12
2017-09-24T17:47:58.514Z,16.08
2017-09-24T17:49:00.396Z,16.12
2017-09-24T17:50:02.285Z,16.15
2017-09-24T17:51:16.451Z,16.15
2017-09-24T17:52:18.353Z,16.12
2017-09-24T17:53:20.235Z,16.11
2017-09-24T17:54:22.120Z,16.12
2017-09-24T17:55:23.941Z,16.02
2017-09-24T17:56:25.764Z,16.01
2017-09-24T17:57:27.649Z,16.11
2017-09-24T17:58:29.533Z,16.09
2017-09-24T17:59:31.420Z,16.11
2017-09-24T18:00:45.574Z,16.24
2017-09-24T18:01:47.463Z,16.15
2017-09-24T18:02:49.344Z,16.17
2017-09-24T18:03:51.230Z,16.12
2017-09-24T18:04:53.050Z,16.14
2017-09-24T18:05:54.871Z,16.11
2017-09-24T18:06:56.757Z,16.00
2017-09-24T18:07:58.641Z,15.97
2017-09-24T18:09:00.528Z,16.01
2017-09-24T18:10:14.686Z,16.08
2017-09-24T18:11:16.569Z,16.09
2017-09-24T18:12:18.454Z,16.05
2017-09-24T18:13:20.338Z,16.08
2017-09-24T18:14:22.170Z,16.02
2017-09-24T18:15:23.983Z,16.14
2017-09-24T18:16:25.868Z,16.20
2017-09-24T18:17:27.756Z,16.05
2017-09-24T18:18:29.657Z,16.05
2017-09-24T18:19:43.813Z,16.17
2017-09-24T18:20:45.696Z,16.04
2017-09-24T18:21:47.582Z,16.08
2017-09-24T18:22:49.467Z,16.05
2017-09-24T18:23:51.292Z,15.97
2017-09-24T18:24:53.110Z,15.93
2017-09-24T18:25:54.997Z,15.94
2017-09-24T18:26:56.884Z,15.96
2017-09-24T18:27:58.770Z,16.00
2017-09-24T18:29:12.928Z,16.01
2017-09-24T18:30:14.813Z,16.05
2017-09-24T18:31:16.732Z,16.05
2017-09-24T18:32:18.584Z,16.08
2017-09-24T18:33:20.405Z,16.12
